Time;durP1;ratioP1;P1;durP2;ratioP2;P2;SDS_P1;SDS_P2;PMS_P1;PMS_P2;Temp;Humidity;BMP_temperature;BMP_pressure;BME280_temperature;BME280_humidity;BME280_pressure;Samples;Min_cycle;Max_cycle;Signal;HPM_P1;HPM_P2
2023/10/21 00:00:42;;;;;;;14.10;8.45;;;;;;;;;;5042079;28;20234;-66
2023/10/21 00:03:08;;;;;;;19.45;7.63;;;;;;;;;;5041472;28;20238;-66
2023/10/21 00:05:35;;;;;;;14.57;7.60;;;;;;;;;;5040798;28;20241;-65
2023/10/21 00:08:01;;;;;;;23.35;8.27;;;;;;;;;;5040331;28;20199;-65
2023/10/21 00:10:28;;;;;;;16.23;6.43;;;;;;;;;;5041711;28;20751;-63
2023/10/21 00:12:54;;;;;;;10.02;5.90;;;;;;;;;;5043185;28;20252;-67
2023/10/21 00:15:23;;;;;;;11.88;5.50;;;;;;;;;;5042972;28;20235;-66
2023/10/21 00:17:49;;;;;;;15.80;6.20;;;;;;;;;;5040121;28;20212;-66
2023/10/21 00:20:16;;;;;;;8.93;5.47;;;;;;;;;;5040160;28;20289;-65
2023/10/21 00:22:42;;;;;;;15.13;6.20;;;;;;;;;;5039414;28;20214;-66
2023/10/21 00:25:09;;;;;;;13.40;5.88;;;;;;;;;;5043790;28;20203;-65
2023/10/21 00:27:35;;;;;;;11.05;5.70;;;;;;;;;;5041019;28;20199;-65
2023/10/21 00:30:02;;;;;;;20.38;5.28;;;;;;;;;;5041836;28;20644;-66
2023/10/21 00:32:29;;;;;;;10.85;5.95;;;;;;;;;;5038814;28;20261;-64
2023/10/21 00:34:56;;;;;;;15.02;5.30;;;;;;;;;;5042934;28;20207;-63
2023/10/21 00:37:22;;;;;;;12.85;4.80;;;;;;;;;;5040779;28;20647;-64
2023/10/21 00:39:49;;;;;;;10.05;5.30;;;;;;;;;;5038857;28;20656;-64
2023/10/21 00:42:15;;;;;;;12.07;4.85;;;;;;;;;;5040715;28;20206;-66
2023/10/21 00:44:41;;;;;;;7.43;4.22;;;;;;;;;;5041365;28;20223;-65
2023/10/21 00:47:08;;;;;;;7.15;5.40;;;;;;;;;;5040871;28;20230;-65
2023/10/21 00:49:36;;;;;;;6.05;4.75;;;;;;;;;;5041756;28;20235;-65
2023/10/21 00:52:04;;;;;;;9.73;5.07;;;;;;;;;;5040979;28;20203;-65
2023/10/21 00:54:30;;;;;;;6.03;4.70;;;;;;;;;;5040057;28;20705;-66
2023/10/21 00:56:57;;;;;;;6.45;4.45;;;;;;;;;;5042217;28;20202;-65
2023/10/21 00:59:24;;;;;;;13.82;4.50;;;;;;;;;;5041849;28;20227;-64
2023/10/21 01:01:50;;;;;;;12.88;4.57;;;;;;;;;;5041763;28;20273;-65
2023/10/21 01:04:17;;;;;;;7.38;4.47;;;;;;;;;;5039946;28;20199;-64
2023/10/21 01:06:45;;;;;;;9.02;3.67;;;;;;;;;;5039924;28;20283;-66
2023/10/21 01:09:14;;;;;;;10.88;3.95;;;;;;;;;;5038151;28;20203;-65
2023/10/21 01:11:40;;;;;;;13.25;4.25;;;;;;;;;;5037802;28;20333;-66
2023/10/21 01:14:09;;;;;;;8.15;3.65;;;;;;;;;;5040806;28;20579;-66
2023/10/21 01:16:35;;;;;;;8.15;4.82;;;;;;;;;;5044865;28;20217;-66
2023/10/21 01:19:01;;;;;;;7.05;3.95;;;;;;;;;;5043462;28;20223;-63
2023/10/21 01:21:28;;;;;;;13.80;4.45;;;;;;;;;;5042876;28;20292;-66
2023/10/21 01:23:56;;;;;;;5.72;3.78;;;;;;;;;;5040567;28;20222;-65
2023/10/21 01:26:23;;;;;;;9.30;3.95;;;;;;;;;;5043707;28;20285;-66
2023/10/21 01:28:49;;;;;;;4.45;3.60;;;;;;;;;;5041359;28;21095;-66
2023/10/21 01:31:16;;;;;;;10.18;4.25;;;;;;;;;;5042749;28;20801;-65
2023/10/21 01:33:43;;;;;;;7.30;3.88;;;;;;;;;;5043854;28;20234;-65
2023/10/21 01:36:09;;;;;;;4.55;3.83;;;;;;;;;;5044968;28;20285;-65
2023/10/21 01:38:36;;;;;;;11.93;3.83;;;;;;;;;;5045384;28;20223;-65
2023/10/21 01:41:04;;;;;;;7.55;4.22;;;;;;;;;;5044319;28;20214;-65
2023/10/21 01:43:34;;;;;;;6.75;3.78;;;;;;;;;;5044773;28;20203;-64
2023/10/21 01:46:05;;;;;;;9.48;3.83;;;;;;;;;;5043741;28;20195;-64
2023/10/21 01:48:31;;;;;;;6.88;3.78;;;;;;;;;;5040466;28;20203;-66
2023/10/21 01:51:02;;;;;;;10.23;4.38;;;;;;;;;;5046622;28;20272;-66
2023/10/21 01:53:29;;;;;;;8.40;4.57;;;;;;;;;;5043133;28;20196;-65
2023/10/21 01:56:00;;;;;;;11.45;4.35;;;;;;;;;;5043698;28;20199;-64
2023/10/21 01:58:28;;;;;;;14.15;4.38;;;;;;;;;;5044273;28;20253;-66
2023/10/21 02:00:55;;;;;;;8.48;3.80;;;;;;;;;;5043537;28;20230;-65
2023/10/21 02:03:21;;;;;;;13.27;3.88;;;;;;;;;;5045530;28;20234;-63
2023/10/21 02:05:47;;;;;;;6.40;3.97;;;;;;;;;;5042801;28;20241;-66
2023/10/21 02:08:14;;;;;;;6.30;4.30;;;;;;;;;;5043603;28;20199;-65
2023/10/21 02:10:41;;;;;;;9.48;4.18;;;;;;;;;;5045332;28;20234;-65
2023/10/21 02:13:07;;;;;;;18.80;3.72;;;;;;;;;;5045485;28;20250;-65
2023/10/21 02:15:36;;;;;;;10.55;3.80;;;;;;;;;;5044411;28;20203;-67
2023/10/21 02:18:04;;;;;;;6.57;4.18;;;;;;;;;;5041544;28;20257;-66
2023/10/21 02:20:30;;;;;;;5.55;3.78;;;;;;;;;;5045019;28;20222;-65
2023/10/21 02:22:56;;;;;;;20.98;6.15;;;;;;;;;;5044851;28;20207;-64
2023/10/21 02:25:23;;;;;;;6.70;4.82;;;;;;;;;;5043498;28;20226;-65
2023/10/21 02:27:49;;;;;;;10.25;3.70;;;;;;;;;;5041327;28;20207;-66
2023/10/21 02:30:16;;;;;;;8.10;3.65;;;;;;;;;;5043307;28;20223;-64
2023/10/21 02:32:45;;;;;;;10.82;4.20;;;;;;;;;;5043472;28;20258;-66
2023/10/21 02:35:11;;;;;;;9.70;4.10;;;;;;;;;;5040261;28;20211;-64
2023/10/21 02:37:38;;;;;;;7.38;5.15;;;;;;;;;;5039253;28;20231;-64
2023/10/21 02:40:05;;;;;;;8.80;4.28;;;;;;;;;;5041110;28;20239;-64
2023/10/21 02:42:31;;;;;;;11.18;3.78;;;;;;;;;;5042179;28;20246;-65
2023/10/21 02:44:59;;;;;;;7.70;3.83;;;;;;;;;;5041512;28;20685;-66
2023/10/21 02:47:26;;;;;;;5.32;4.40;;;;;;;;;;5042872;28;20211;-66
2023/10/21 02:49:54;;;;;;;11.93;4.57;;;;;;;;;;5045059;28;20631;-66
2023/10/21 02:52:21;;;;;;;6.65;3.95;;;;;;;;;;5045394;28;20231;-65
2023/10/21 02:54:48;;;;;;;7.47;4.30;;;;;;;;;;5042504;28;20231;-66
2023/10/21 02:57:14;;;;;;;4.63;3.85;;;;;;;;;;5041536;28;20265;-64
2023/10/21 02:59:40;;;;;;;11.98;4.75;;;;;;;;;;5042328;28;20272;-63
2023/10/21 03:02:09;;;;;;;9.18;4.28;;;;;;;;;;5040961;28;20457;-65
2023/10/21 03:04:36;;;;;;;5.20;4.00;;;;;;;;;;5042264;28;20730;-65
2023/10/21 03:07:05;;;;;;;6.38;4.03;;;;;;;;;;5039982;28;20287;-64
2023/10/21 03:09:37;;;;;;;9.15;4.30;;;;;;;;;;5043044;28;20693;-60
2023/10/21 03:12:04;;;;;;;11.52;3.75;;;;;;;;;;5039271;28;20667;-65
2023/10/21 03:14:30;;;;;;;9.98;3.80;;;;;;;;;;5042297;28;20203;-64
2023/10/21 03:16:57;;;;;;;9.27;4.40;;;;;;;;;;5041531;28;20203;-64
2023/10/21 03:19:23;;;;;;;10.00;4.40;;;;;;;;;;5041917;28;20289;-65
2023/10/21 03:21:49;;;;;;;7.65;3.88;;;;;;;;;;5039730;28;20285;-65
2023/10/21 03:24:17;;;;;;;9.80;4.53;;;;;;;;;;5040610;28;20203;-64
2023/10/21 03:26:44;;;;;;;8.77;3.92;;;;;;;;;;5041832;28;20204;-65
2023/10/21 03:29:11;;;;;;;10.13;3.85;;;;;;;;;;5043627;28;20754;-65
2023/10/21 03:31:37;;;;;;;5.95;4.40;;;;;;;;;;5044350;28;20219;-65
2023/10/21 03:34:03;;;;;;;6.95;3.95;;;;;;;;;;5042733;28;20302;-66
2023/10/21 03:36:30;;;;;;;7.82;4.20;;;;;;;;;;5040982;28;20261;-65
2023/10/21 03:38:56;;;;;;;11.60;4.35;;;;;;;;;;5043795;28;20296;-64
2023/10/21 03:41:24;;;;;;;5.00;4.35;;;;;;;;;;5043080;28;20265;-65
2023/10/21 03:43:51;;;;;;;8.63;3.95;;;;;;;;;;5042255;28;20238;-64
2023/10/21 03:46:18;;;;;;;8.88;4.72;;;;;;;;;;5040276;28;20199;-65
2023/10/21 03:48:44;;;;;;;5.20;4.70;;;;;;;;;;5043620;28;20199;-64
2023/10/21 03:51:11;;;;;;;8.73;4.85;;;;;;;;;;5042790;28;20637;-64
2023/10/21 03:53:38;;;;;;;9.38;5.05;;;;;;;;;;5042038;28;20213;-64
2023/10/21 03:56:05;;;;;;;9.52;4.97;;;;;;;;;;5040362;28;20256;-65
2023/10/21 03:58:33;;;;;;;13.43;4.07;;;;;;;;;;5042635;28;20203;-64
2023/10/21 04:00:59;;;;;;;7.75;4.63;;;;;;;;;;5042008;28;20258;-64
2023/10/21 04:03:26;;;;;;;9.93;5.32;;;;;;;;;;5042069;28;20238;-65
2023/10/21 04:05:53;;;;;;;8.02;4.95;;;;;;;;;;5043241;28;20245;-66
2023/10/21 04:08:19;;;;;;;11.65;4.85;;;;;;;;;;5041834;28;20583;-65
2023/10/21 04:10:46;;;;;;;15.95;5.78;;;;;;;;;;5040484;28;20288;-64
2023/10/21 04:13:12;;;;;;;13.15;5.50;;;;;;;;;;5042755;28;20650;-65
2023/10/21 04:15:40;;;;;;;11.30;4.93;;;;;;;;;;5039368;28;20203;-65
2023/10/21 04:18:07;;;;;;;7.07;5.05;;;;;;;;;;5042244;28;20199;-66
2023/10/21 04:20:34;;;;;;;21.90;10.18;;;;;;;;;;5041418;28;20254;-66
2023/10/21 04:23:00;;;;;;;15.20;7.40;;;;;;;;;;5042171;28;20264;-65
2023/10/21 04:25:28;;;;;;;26.17;13.52;;;;;;;;;;5038868;28;21260;-66
2023/10/21 04:27:55;;;;;;;9.90;7.72;;;;;;;;;;5041206;28;20649;-65
2023/10/21 04:30:22;;;;;;;16.83;8.35;;;;;;;;;;5043355;28;20207;-65
2023/10/21 04:32:50;;;;;;;11.52;7.20;;;;;;;;;;5042691;28;20203;-64
2023/10/21 04:35:17;;;;;;;13.30;5.78;;;;;;;;;;5041556;28;20709;-67
2023/10/21 04:37:43;;;;;;;11.32;6.13;;;;;;;;;;5041225;28;20673;-67
2023/10/21 04:40:11;;;;;;;11.57;6.18;;;;;;;;;;5039001;28;20781;-67
2023/10/21 04:42:38;;;;;;;12.98;6.90;;;;;;;;;;5042945;28;20218;-65
2023/10/21 04:45:05;;;;;;;12.93;6.55;;;;;;;;;;5042199;28;20203;-66
2023/10/21 04:47:32;;;;;;;9.98;6.07;;;;;;;;;;5040206;28;20231;-66
2023/10/21 04:49:59;;;;;;;11.43;5.95;;;;;;;;;;5038890;28;20256;-66
2023/10/21 04:52:26;;;;;;;9.95;6.40;;;;;;;;;;5041675;28;20269;-67
2023/10/21 04:54:52;;;;;;;16.95;6.40;;;;;;;;;;5041768;28;20203;-66
2023/10/21 04:57:19;;;;;;;7.38;5.20;;;;;;;;;;5039945;28;20210;-67
2023/10/21 04:59:45;;;;;;;20.15;5.78;;;;;;;;;;5042135;28;20233;-66
2023/10/21 05:02:12;;;;;;;12.18;6.15;;;;;;;;;;5039841;28;20712;-66
2023/10/21 05:04:38;;;;;;;25.02;11.95;;;;;;;;;;5041786;28;20689;-66
2023/10/21 05:07:06;;;;;;;28.10;13.38;;;;;;;;;;5039006;28;20288;-66
2023/10/21 05:09:33;;;;;;;15.90;7.53;;;;;;;;;;5037337;28;20210;-65
2023/10/21 05:12:00;;;;;;;19.98;8.50;;;;;;;;;;5041250;28;20234;-67
2023/10/21 05:14:27;;;;;;;15.43;6.22;;;;;;;;;;5039102;28;20195;-66
2023/10/21 05:16:53;;;;;;;9.15;6.45;;;;;;;;;;5040285;28;20211;-65
2023/10/21 05:19:20;;;;;;;12.95;7.85;;;;;;;;;;5039076;28;20199;-66
2023/10/21 05:21:46;;;;;;;10.10;7.18;;;;;;;;;;5041079;28;20233;-64
2023/10/21 05:24:14;;;;;;;14.52;8.05;;;;;;;;;;5039983;28;20338;-64
2023/10/21 05:26:41;;;;;;;15.20;7.20;;;;;;;;;;5039641;28;20199;-67
2023/10/21 05:29:07;;;;;;;16.80;7.53;;;;;;;;;;5037932;28;20246;-63
2023/10/21 05:31:34;;;;;;;11.90;7.90;;;;;;;;;;5039101;28;20306;-66
2023/10/21 05:34:00;;;;;;;17.67;7.55;;;;;;;;;;5040579;28;20195;-63
2023/10/21 05:36:27;;;;;;;14.90;8.57;;;;;;;;;;5038446;28;20203;-65
2023/10/21 05:38:53;;;;;;;14.85;8.45;;;;;;;;;;5042019;28;20253;-65
2023/10/21 05:41:22;;;;;;;17.40;8.75;;;;;;;;;;5040493;28;20727;-66
2023/10/21 05:43:48;;;;;;;15.45;9.23;;;;;;;;;;5040266;28;20378;-64
2023/10/21 05:46:15;;;;;;;12.13;7.45;;;;;;;;;;5039876;28;20211;-65
2023/10/21 05:48:41;;;;;;;25.85;9.57;;;;;;;;;;5041755;28;20238;-65
2023/10/21 05:51:08;;;;;;;22.45;12.10;;;;;;;;;;5042411;28;20210;-65
2023/10/21 05:53:34;;;;;;;40.72;22.27;;;;;;;;;;5042531;28;20234;-67
2023/10/21 05:56:00;;;;;;;15.55;8.63;;;;;;;;;;5040858;28;20245;-62
2023/10/21 05:58:28;;;;;;;28.92;9.52;;;;;;;;;;5031275;28;21064;-66
2023/10/21 06:00:55;;;;;;;17.25;9.18;;;;;;;;;;5043287;28;20789;-66
2023/10/21 06:03:23;;;;;;;17.65;7.35;;;;;;;;;;5044323;28;20293;-65
2023/10/21 06:05:49;;;;;;;20.08;8.25;;;;;;;;;;5042479;28;20651;-66
2023/10/21 06:08:16;;;;;;;29.88;8.70;;;;;;;;;;5043840;28;20261;-65
2023/10/21 06:10:44;;;;;;;28.88;7.93;;;;;;;;;;5043745;28;20687;-65
2023/10/21 06:13:10;;;;;;;6.72;5.57;;;;;;;;;;5042010;28;20634;-66
2023/10/21 06:15:39;;;;;;;14.00;6.07;;;;;;;;;;5045528;28;20207;-67
2023/10/21 06:18:06;;;;;;;14.65;6.75;;;;;;;;;;5041848;28;20210;-65
2023/10/21 06:20:33;;;;;;;14.85;6.03;;;;;;;;;;5042777;28;20302;-67
2023/10/21 06:22:59;;;;;;;15.48;6.65;;;;;;;;;;5045699;28;20206;-67
2023/10/21 06:25:26;;;;;;;15.63;7.53;;;;;;;;;;5045299;28;20630;-68
2023/10/21 06:27:52;;;;;;;8.27;5.10;;;;;;;;;;5043943;28;20787;-67
2023/10/21 06:30:19;;;;;;;14.82;5.32;;;;;;;;;;5043929;28;20248;-63
2023/10/21 06:32:47;;;;;;;8.98;5.32;;;;;;;;;;5043519;28;20200;-67
2023/10/21 06:35:13;;;;;;;12.85;5.45;;;;;;;;;;5044111;28;20349;-68
2023/10/21 06:37:40;;;;;;;9.38;4.25;;;;;;;;;;5041553;28;20203;-67
2023/10/21 06:40:07;;;;;;;13.00;4.63;;;;;;;;;;5042085;28;20302;-67
2023/10/21 06:42:33;;;;;;;9.88;5.20;;;;;;;;;;5044070;28;20318;-68
2023/10/21 06:45:00;;;;;;;11.32;4.50;;;;;;;;;;5045589;28;20205;-66
2023/10/21 06:47:26;;;;;;;12.43;5.22;;;;;;;;;;5041602;28;20299;-67
2023/10/21 06:49:54;;;;;;;12.82;4.97;;;;;;;;;;5042630;28;20247;-66
2023/10/21 06:52:20;;;;;;;14.95;6.93;;;;;;;;;;5042672;28;20203;-66
2023/10/21 06:54:47;;;;;;;14.07;5.22;;;;;;;;;;5045279;28;20598;-68
2023/10/21 06:57:20;;;;;;;9.80;5.55;;;;;;;;;;5042342;28;20203;-67
2023/10/21 06:59:47;;;;;;;6.32;5.03;;;;;;;;;;5045381;28;20237;-66
2023/10/21 07:02:13;;;;;;;11.50;5.13;;;;;;;;;;5043724;28;20623;-68
2023/10/21 07:04:39;;;;;;;10.57;5.50;;;;;;;;;;5042982;28;20696;-66
2023/10/21 07:07:07;;;;;;;8.07;4.72;;;;;;;;;;5042358;28;20230;-67
2023/10/21 07:09:34;;;;;;;19.50;6.70;;;;;;;;;;5041906;28;20245;-67
2023/10/21 07:12:00;;;;;;;18.13;5.45;;;;;;;;;;5040320;28;20258;-67
2023/10/21 07:14:26;;;;;;;17.55;5.32;;;;;;;;;;5043516;28;20731;-67
2023/10/21 07:16:53;;;;;;;16.52;5.70;;;;;;;;;;5041253;28;20698;-65
2023/10/21 07:19:20;;;;;;;12.10;5.22;;;;;;;;;;5038974;28;20195;-66
2023/10/21 07:21:47;;;;;;;18.00;5.82;;;;;;;;;;5043668;28;20218;-64
2023/10/21 07:24:15;;;;;;;14.55;4.80;;;;;;;;;;5043710;28;21410;-66
2023/10/21 07:26:41;;;;;;;8.45;4.93;;;;;;;;;;5041756;28;20641;-64
2023/10/21 07:29:08;;;;;;;11.77;4.97;;;;;;;;;;5043048;28;20669;-69
2023/10/21 07:31:34;;;;;;;9.35;4.80;;;;;;;;;;5041920;28;20231;-65
2023/10/21 07:34:01;;;;;;;7.88;5.38;;;;;;;;;;5043984;28;20293;-68
2023/10/21 07:36:28;;;;;;;11.57;3.95;;;;;;;;;;5043872;28;20653;-68
2023/10/21 07:38:54;;;;;;;5.00;4.50;;;;;;;;;;5043873;28;20566;-69
2023/10/21 07:41:23;;;;;;;12.63;5.05;;;;;;;;;;5043848;28;20310;-65
2023/10/21 07:43:49;;;;;;;14.45;6.70;;;;;;;;;;5044600;28;20199;-64
2023/10/21 07:46:16;;;;;;;11.60;5.28;;;;;;;;;;5044193;28;20227;-66
2023/10/21 07:48:43;;;;;;;16.40;5.93;;;;;;;;;;5044068;28;20207;-67
2023/10/21 07:51:09;;;;;;;14.43;5.43;;;;;;;;;;5044506;28;20278;-67
2023/10/21 07:53:36;;;;;;;18.38;5.88;;;;;;;;;;5043786;28;20234;-68
2023/10/21 07:56:02;;;;;;;10.82;4.50;;;;;;;;;;5043405;28;20238;-67
2023/10/21 07:58:30;;;;;;;14.40;4.53;;;;;;;;;;5040454;28;20239;-66
2023/10/21 08:00:56;;;;;;;14.43;4.28;;;;;;;;;;5042847;28;20219;-62
2023/10/21 08:03:23;;;;;;;9.25;4.38;;;;;;;;;;5044481;28;20210;-67
2023/10/21 08:05:49;;;;;;;12.18;4.35;;;;;;;;;;5044144;28;20203;-68
2023/10/21 08:08:15;;;;;;;11.82;3.90;;;;;;;;;;5042321;28;20623;-67
2023/10/21 08:10:42;;;;;;;13.48;4.90;;;;;;;;;;5041907;28;20226;-68
2023/10/21 08:13:08;;;;;;;9.75;3.65;;;;;;;;;;5041395;28;20680;-66
2023/10/21 08:15:36;;;;;;;10.07;4.50;;;;;;;;;;5043539;28;20230;-64
2023/10/21 08:18:03;;;;;;;20.20;4.47;;;;;;;;;;5040688;28;20238;-66
2023/10/21 08:20:29;;;;;;;7.28;4.00;;;;;;;;;;5042337;28;20211;-66
2023/10/21 08:22:56;;;;;;;10.48;4.80;;;;;;;;;;5043452;28;20199;-67
2023/10/21 08:25:22;;;;;;;20.10;5.13;;;;;;;;;;5042865;28;20211;-68
2023/10/21 08:27:48;;;;;;;16.38;4.78;;;;;;;;;;5043428;28;20676;-67
2023/10/21 08:30:15;;;;;;;14.77;4.55;;;;;;;;;;5044071;28;20234;-68
2023/10/21 08:32:44;;;;;;;10.75;4.97;;;;;;;;;;5044611;28;20775;-68
2023/10/21 08:35:10;;;;;;;13.02;4.30;;;;;;;;;;5041957;28;20268;-68
2023/10/21 08:37:37;;;;;;;13.82;4.55;;;;;;;;;;5043235;28;20210;-67
2023/10/21 08:40:08;;;;;;;10.98;4.88;;;;;;;;;;5043014;28;20199;-66
2023/10/21 08:42:34;;;;;;;16.95;4.45;;;;;;;;;;5043653;28;20273;-68
2023/10/21 08:45:05;;;;;;;10.27;4.45;;;;;;;;;;5040588;28;20584;-68
2023/10/21 08:47:32;;;;;;;12.88;4.18;;;;;;;;;;5040300;28;20231;-69
2023/10/21 08:50:00;;;;;;;17.55;6.15;;;;;;;;;;5043387;28;20676;-67
2023/10/21 08:52:27;;;;;;;11.82;3.70;;;;;;;;;;5042229;28;20195;-67
2023/10/21 08:54:53;;;;;;;9.57;3.33;;;;;;;;;;5041530;28;20238;-69
2023/10/21 08:57:21;;;;;;;9.85;4.00;;;;;;;;;;5041278;28;20710;-65
2023/10/21 08:59:47;;;;;;;10.07;3.70;;;;;;;;;;5041318;28;20199;-66
2023/10/21 09:02:13;;;;;;;12.05;4.53;;;;;;;;;;5042330;28;20215;-69
2023/10/21 09:04:40;;;;;;;12.93;4.78;;;;;;;;;;5043142;28;20284;-66
2023/10/21 09:07:08;;;;;;;8.60;3.85;;;;;;;;;;5040442;28;20210;-66
2023/10/21 09:09:34;;;;;;;13.60;3.85;;;;;;;;;;5042244;28;20226;-67
2023/10/21 09:12:11;;;;;;;10.45;4.68;;;;;;;;;;5042386;28;20342;-69
2023/10/21 09:14:51;;;;;;;10.07;3.58;;;;;;;;;;5041317;28;20211;-69
2023/10/21 09:17:17;;;;;;;20.27;2.95;;;;;;;;;;5041923;28;20199;-67
2023/10/21 09:19:44;;;;;;;13.43;2.80;;;;;;;;;;5041862;28;20199;-65
2023/10/21 09:22:20;;;;;;;15.43;3.42;;;;;;;;;;5041780;28;20291;-67
2023/10/21 09:24:47;;;;;;;5.22;3.53;;;;;;;;;;5040900;28;20233;-67
2023/10/21 09:27:14;;;;;;;21.05;6.22;;;;;;;;;;5042470;28;20321;-67
2023/10/21 09:29:41;;;;;;;11.18;4.78;;;;;;;;;;5039935;28;20218;-67
2023/10/21 09:32:08;;;;;;;13.88;3.30;;;;;;;;;;5040687;28;20326;-67
2023/10/21 09:34:34;;;;;;;13.68;4.38;;;;;;;;;;5041044;28;20234;-67
2023/10/21 09:37:01;;;;;;;19.77;3.85;;;;;;;;;;5046204;28;20281;-68
2023/10/21 09:39:32;;;;;;;13.50;3.03;;;;;;;;;;5045465;28;20209;-71
2023/10/21 09:41:59;;;;;;;10.23;3.33;;;;;;;;;;5045325;28;20333;-69
2023/10/21 09:44:26;;;;;;;20.02;3.40;;;;;;;;;;5046639;28;20265;-68
2023/10/21 09:46:53;;;;;;;7.40;2.85;;;;;;;;;;5047360;28;20215;-68
2023/10/21 09:49:20;;;;;;;11.13;2.47;;;;;;;;;;5046643;28;20278;-68
2023/10/21 09:51:48;;;;;;;10.45;3.10;;;;;;;;;;5045861;28;20206;-69
2023/10/21 09:54:16;;;;;;;11.52;3.03;;;;;;;;;;5046577;28;20195;-68
2023/10/21 09:56:44;;;;;;;11.23;3.65;;;;;;;;;;5044909;28;20269;-68
2023/10/21 09:59:12;;;;;;;8.40;3.08;;;;;;;;;;5045044;28;20208;-65
2023/10/21 10:01:39;;;;;;;10.05;2.97;;;;;;;;;;5045744;28;20308;-67
2023/10/21 10:04:09;;;;;;;10.98;3.33;;;;;;;;;;5042688;28;20206;-67
2023/10/21 10:06:37;;;;;;;11.13;3.13;;;;;;;;;;5044973;28;20203;-67
2023/10/21 10:09:06;;;;;;;29.70;3.75;;;;;;;;;;5043168;28;20195;-67
2023/10/21 10:11:33;;;;;;;13.05;3.15;;;;;;;;;;5044134;28;20259;-64
2023/10/21 10:14:02;;;;;;;13.20;3.75;;;;;;;;;;5043235;28;20242;-68
2023/10/21 10:16:29;;;;;;;15.38;2.97;;;;;;;;;;5045230;28;20225;-68
2023/10/21 10:18:56;;;;;;;18.77;3.40;;;;;;;;;;5043459;28;20206;-67
2023/10/21 10:21:23;;;;;;;34.40;4.72;;;;;;;;;;5043724;28;20235;-68
2023/10/21 10:23:50;;;;;;;20.55;3.78;;;;;;;;;;5045365;28;20199;-68
2023/10/21 10:26:27;;;;;;;13.80;4.00;;;;;;;;;;5044830;28;20195;-67
2023/10/21 10:28:54;;;;;;;7.32;3.33;;;;;;;;;;5042425;28;20884;-66
2023/10/21 10:31:23;;;;;;;14.57;4.40;;;;;;;;;;5042586;28;20234;-65
2023/10/21 10:33:50;;;;;;;15.52;4.47;;;;;;;;;;5045800;28;20230;-66
2023/10/21 10:36:26;;;;;;;22.77;8.50;;;;;;;;;;5045281;28;20870;-68
2023/10/21 10:38:54;;;;;;;17.63;4.15;;;;;;;;;;5045218;28;20211;-68
2023/10/21 10:41:21;;;;;;;9.13;2.88;;;;;;;;;;5044940;28;20696;-67
2023/10/21 10:43:51;;;;;;;21.02;3.65;;;;;;;;;;5046091;28;20288;-64
2023/10/21 10:46:18;;;;;;;14.43;3.33;;;;;;;;;;5044003;28;20199;-65
2023/10/21 10:48:47;;;;;;;14.10;2.80;;;;;;;;;;5042509;28;21220;-65
2023/10/21 10:51:14;;;;;;;17.02;3.47;;;;;;;;;;5043994;28;20282;-69
2023/10/21 10:53:41;;;;;;;14.18;3.00;;;;;;;;;;5043961;28;20214;-69
2023/10/21 10:56:09;;;;;;;14.27;3.88;;;;;;;;;;5046641;28;20219;-68
2023/10/21 10:58:36;;;;;;;18.55;3.53;;;;;;;;;;5045071;28;20211;-68
2023/10/21 11:01:07;;;;;;;21.80;3.50;;;;;;;;;;5044526;28;20207;-67
2023/10/21 11:03:36;;;;;;;26.60;3.53;;;;;;;;;;5045452;28;20203;-66
2023/10/21 11:06:04;;;;;;;28.38;3.60;;;;;;;;;;5045860;28;20296;-68
2023/10/21 11:08:31;;;;;;;7.60;3.30;;;;;;;;;;5042504;28;20207;-67
2023/10/21 11:11:04;;;;;;;11.90;3.05;;;;;;;;;;5041910;28;20230;-65
2023/10/21 11:13:31;;;;;;;12.02;3.67;;;;;;;;;;5044434;28;20560;-67
2023/10/21 11:15:58;;;;;;;18.63;4.00;;;;;;;;;;5042598;28;20210;-67
2023/10/21 11:18:26;;;;;;;16.00;4.03;;;;;;;;;;5040447;28;20227;-67
2023/10/21 11:20:52;;;;;;;12.45;3.08;;;;;;;;;;5042533;28;20319;-67
2023/10/21 11:23:21;;;;;;;17.95;3.03;;;;;;;;;;5040252;28;20260;-65
2023/10/21 11:25:51;;;;;;;22.20;4.32;;;;;;;;;;5040949;28;20254;-65
2023/10/21 11:28:18;;;;;;;15.93;3.22;;;;;;;;;;5043240;28;20261;-66
2023/10/21 11:30:44;;;;;;;15.98;3.00;;;;;;;;;;5044787;28;20277;-66
2023/10/21 11:33:11;;;;;;;11.70;3.10;;;;;;;;;;5045025;28;20739;-68
2023/10/21 11:35:39;;;;;;;18.33;3.63;;;;;;;;;;5040913;28;20601;-69
2023/10/21 11:38:06;;;;;;;9.07;3.08;;;;;;;;;;5041907;28;20199;-67
2023/10/21 11:40:34;;;;;;;20.08;2.75;;;;;;;;;;5041411;28;20648;-63
2023/10/21 11:43:00;;;;;;;9.57;2.97;;;;;;;;;;5030381;28;21757;-63
2023/10/21 11:45:29;;;;;;;11.27;3.63;;;;;;;;;;5045139;28;20215;-63
2023/10/21 11:47:56;;;;;;;13.82;4.10;;;;;;;;;;5043250;28;20677;-63
2023/10/21 11:50:22;;;;;;;14.55;3.22;;;;;;;;;;5043766;28;20299;-63
2023/10/21 11:52:51;;;;;;;18.58;4.55;;;;;;;;;;5041366;28;20192;-63
2023/10/21 12:26:39;;;;;;;23.73;11.07;;;;;;;;;;4999274;28;20259;-62
2023/10/21 12:32:35;;;;;;;10.57;4.13;;;;;;;;;;5012895;28;20361;-62
2023/10/21 12:35:01;;;;;;;28.67;16.20;;;;;;;;;;5039975;28;20202;-63
2023/10/21 12:37:40;;;;;;;13.55;3.35;;;;;;;;;;5039350;28;20202;-64
2023/10/21 12:40:30;;;;;;;14.82;2.90;;;;;;;;;;5038929;28;20198;-63
2023/10/21 12:45:58;;;;;;;11.52;3.72;;;;;;;29.69;23.90;94685.22;5086891;27;20608;-63
2023/10/21 12:48:25;;;;;;;10.25;3.83;;;;;;;29.59;24.32;94683.84;5080914;28;20274;-63
2023/10/21 12:50:54;;;;;;;11.82;2.97;;;;;;;29.62;23.18;94679.06;5079885;28;20695;-64
2023/10/21 12:53:21;;;;;;;10.00;4.47;;;;;;;29.62;26.24;94673.00;5079330;28;20259;-64
2023/10/21 12:55:48;;;;;;;16.25;3.03;;;;;;;29.46;23.31;94676.56;5080265;28;20197;-64
2023/10/21 12:58:15;;;;;;;7.72;4.78;;;;;;;29.42;26.26;94677.91;5079309;28;20262;-63
2023/10/21 13:00:43;;;;;;;9.35;3.70;;;;;;;29.30;26.32;94680.09;5080423;28;20238;-63
2023/10/21 13:03:11;;;;;;;16.50;3.03;;;;;;;29.55;23.61;94687.78;5080052;28;20795;-63
2023/10/21 13:05:38;;;;;;;11.95;2.80;;;;;;;29.43;23.75;94671.69;5078895;28;20787;-64
2023/10/21 13:08:09;;;;;;;17.00;3.22;;;;;;;29.53;23.99;94695.81;5079619;28;20255;-62
2023/10/21 13:10:35;;;;;;;8.90;3.25;;;;;;;29.47;24.28;94686.03;5081759;28;20299;-63
2023/10/21 13:13:03;;;;;;;14.27;3.03;;;;;;;29.44;24.19;94686.41;5081232;28;20197;-63
2023/10/21 13:15:30;;;;;;;8.80;2.75;;;;;;;29.44;24.29;94696.88;5081256;28;20228;-62
2023/10/21 13:17:57;;;;;;;11.20;2.92;;;;;;;29.39;26.27;94683.47;5080688;28;20285;-63
2023/10/21 13:20:25;;;;;;;16.52;3.72;;;;;;;29.15;24.96;94689.69;5080175;28;20679;-63
2023/10/21 13:22:54;;;;;;;10.60;3.53;;;;;;;29.02;26.43;94681.59;5081021;28;20202;-65
2023/10/21 13:25:21;;;;;;;8.80;3.22;;;;;;;29.06;25.01;94698.56;5080821;28;20218;-63
2023/10/21 13:27:48;;;;;;;9.68;3.13;;;;;;;29.19;24.64;94698.84;5081085;28;20297;-62
2023/10/21 13:30:14;;;;;;;14.75;3.17;;;;;;;29.01;24.28;94693.84;5081454;28;20255;-64
2023/10/21 13:32:42;;;;;;;15.15;3.63;;;;;;;29.15;24.78;94691.50;5080599;28;20291;-63
2023/10/21 13:35:10;;;;;;;9.52;3.03;;;;;;;29.07;24.88;94692.34;5079019;28;20303;-63
2023/10/21 13:37:39;;;;;;;10.23;3.33;;;;;;;28.98;25.02;94686.34;5078196;28;20266;-63
2023/10/21 13:40:13;;;;;;;12.10;2.50;;;;;;;28.94;25.01;94689.50;5078757;28;20198;-63
2023/10/21 13:42:40;;;;;;;8.35;3.10;;;;;;;28.96;24.97;94688.31;5078516;28;20691;-63
2023/10/21 13:45:17;;;;;;;9.32;3.10;;;;;;;28.97;25.16;94692.56;5078533;28;20328;-63
2023/10/21 13:47:43;;;;;;;18.73;3.75;;;;;;;28.85;25.38;94704.41;5077570;28;20210;-64
2023/10/21 13:50:15;;;;;;;12.98;3.30;;;;;;;28.70;25.19;94703.50;5078494;28;20214;-63
2023/10/21 13:52:45;;;;;;;11.05;2.80;;;;;;;28.69;26.12;94701.88;5079077;28;20206;-63
2023/10/21 13:55:14;;;;;;;10.65;2.83;;;;;;;28.54;26.17;94693.09;5076272;28;20296;-63
2023/10/21 13:57:42;;;;;;;16.77;5.72;;;;;;;28.63;25.47;94698.13;5050691;28;20214;-63
2023/10/21 14:00:25;;;;;;;15.43;7.38;;;;;;;28.59;25.60;94688.16;5062314;28;20271;-63
2023/10/21 14:02:53;;;;;;;37.58;19.45;;;;;;;28.55;26.40;94707.78;5063776;28;20206;-65
2023/10/21 14:05:20;;;;;;;13.55;5.40;;;;;;;28.62;25.63;94701.72;5064037;28;20317;-67
2023/10/21 14:07:49;;;;;;;10.13;3.00;;;;;;;28.69;25.05;94696.63;5064043;28;20214;-63
2023/10/21 14:10:17;;;;;;;17.13;13.10;;;;;;;28.55;26.85;94702.56;5063561;28;20199;-64
2023/10/21 14:12:44;;;;;;;12.80;4.68;;;;;;;28.42;26.05;94701.31;5064522;28;20207;-63
2023/10/21 14:15:16;;;;;;;15.13;7.95;;;;;;;28.33;26.87;94699.69;5063954;28;20218;-63
2023/10/21 14:17:43;;;;;;;11.98;3.03;;;;;;;28.23;26.75;94696.44;5064008;28;20215;-65
2023/10/21 14:20:11;;;;;;;15.18;6.20;;;;;;;28.09;27.31;94704.97;5062630;28;20260;-64
2023/10/21 14:22:38;;;;;;;15.82;4.43;;;;;;;28.02;26.43;94701.38;5065965;28;20232;-63
2023/10/21 14:25:07;;;;;;;11.18;2.60;;;;;;;27.81;26.27;94690.63;5066587;28;20230;-64
2023/10/21 14:27:35;;;;;;;12.52;5.22;;;;;;;27.83;27.01;94694.72;5064614;28;20201;-64
2023/10/21 14:30:03;;;;;;;10.00;3.03;;;;;;;27.83;26.07;94704.34;5062755;28;20198;-62
2023/10/21 14:32:29;;;;;;;10.40;3.25;;;;;;;27.78;26.94;94705.66;5062726;28;20222;-62
2023/10/21 14:34:56;;;;;;;7.47;3.17;;;;;;;27.62;26.37;94702.25;5064576;28;20597;-62
2023/10/21 14:37:22;;;;;;;11.57;3.17;;;;;;;27.52;27.03;94712.81;5062918;28;20230;-64
2023/10/21 14:39:49;;;;;;;15.50;3.45;;;;;;;27.60;26.37;94702.41;5065767;28;20683;-62